sensor_id;sensor_type;location;lat;lon;timestamp;P1;durP1;ratioP1;P2;durP2;ratioP2
71836;SDS011;59686;51.716;7.016;2023-07-09T00:01:49;7.70;;;6.15;;
71836;SDS011;59686;51.716;7.016;2023-07-09T00:04:15;6.85;;;6.13;;
71836;SDS011;59686;51.716;7.016;2023-07-09T00:06:42;7.07;;;6.20;;
71836;SDS011;59686;51.716;7.016;2023-07-09T00:09:15;6.25;;;5.65;;
71836;SDS011;59686;51.716;7.016;2023-07-09T00:11:45;6.60;;;5.45;;
71836;SDS011;59686;51.716;7.016;2023-07-09T00:14:13;8.15;;;6.13;;
71836;SDS011;59686;51.716;7.016;2023-07-09T00:16:40;6.70;;;6.00;;
71836;SDS011;59686;51.716;7.016;2023-07-09T00:19:11;6.75;;;5.60;;
71836;SDS011;59686;51.716;7.016;2023-07-09T00:21:41;8.38;;;5.82;;
71836;SDS011;59686;51.716;7.016;2023-07-09T00:24:07;6.47;;;5.88;;
71836;SDS011;59686;51.716;7.016;2023-07-09T00:26:35;6.80;;;6.10;;
71836;SDS011;59686;51.716;7.016;2023-07-09T00:29:03;6.93;;;5.68;;
71836;SDS011;59686;51.716;7.016;2023-07-09T00:31:29;6.13;;;5.50;;
71836;SDS011;59686;51.716;7.016;2023-07-09T00:33:55;6.05;;;5.45;;
71836;SDS011;59686;51.716;7.016;2023-07-09T00:38:54;7.28;;;6.07;;
71836;SDS011;59686;51.716;7.016;2023-07-09T00:41:21;7.50;;;6.25;;
71836;SDS011;59686;51.716;7.016;2023-07-09T00:43:56;8.23;;;6.32;;
71836;SDS011;59686;51.716;7.016;2023-07-09T00:48:50;6.32;;;5.72;;
71836;SDS011;59686;51.716;7.016;2023-07-09T00:51:23;7.32;;;6.05;;
71836;SDS011;59686;51.716;7.016;2023-07-09T00:53:51;6.55;;;5.43;;
71836;SDS011;59686;51.716;7.016;2023-07-09T00:56:27;6.30;;;5.70;;
71836;SDS011;59686;51.716;7.016;2023-07-09T00:58:57;6.07;;;5.47;;
71836;SDS011;59686;51.716;7.016;2023-07-09T01:01:26;7.07;;;6.00;;
71836;SDS011;59686;51.716;7.016;2023-07-09T01:03:54;6.82;;;6.10;;
71836;SDS011;59686;51.716;7.016;2023-07-09T01:06:28;7.35;;;5.63;;
71836;SDS011;59686;51.716;7.016;2023-07-09T01:09:00;6.43;;;5.78;;
71836;SDS011;59686;51.716;7.016;2023-07-09T01:11:33;6.20;;;5.60;;
71836;SDS011;59686;51.716;7.016;2023-07-09T01:14:00;7.55;;;6.22;;
71836;SDS011;59686;51.716;7.016;2023-07-09T01:16:32;8.60;;;5.93;;
71836;SDS011;59686;51.716;7.016;2023-07-09T01:19:02;8.20;;;6.00;;
71836;SDS011;59686;51.716;7.016;2023-07-09T01:21:29;7.05;;;5.43;;
71836;SDS011;59686;51.716;7.016;2023-07-09T01:23:55;7.38;;;5.85;;
71836;SDS011;59686;51.716;7.016;2023-07-09T01:26:23;7.35;;;6.00;;
71836;SDS011;59686;51.716;7.016;2023-07-09T01:28:51;6.40;;;5.47;;
71836;SDS011;59686;51.716;7.016;2023-07-09T01:31:18;7.55;;;5.70;;
71836;SDS011;59686;51.716;7.016;2023-07-09T01:33:46;8.18;;;6.00;;
71836;SDS011;59686;51.716;7.016;2023-07-09T01:36:13;7.40;;;5.88;;
71836;SDS011;59686;51.716;7.016;2023-07-09T01:38:42;6.25;;;5.65;;
71836;SDS011;59686;51.716;7.016;2023-07-09T01:41:08;7.25;;;6.10;;
71836;SDS011;59686;51.716;7.016;2023-07-09T01:43:38;6.38;;;5.60;;
71836;SDS011;59686;51.716;7.016;2023-07-09T01:46:06;7.55;;;6.10;;
71836;SDS011;59686;51.716;7.016;2023-07-09T01:48:33;7.20;;;6.40;;
71836;SDS011;59686;51.716;7.016;2023-07-09T01:51:06;6.78;;;6.00;;
71836;SDS011;59686;51.716;7.016;2023-07-09T01:53:34;6.90;;;5.82;;
71836;SDS011;59686;51.716;7.016;2023-07-09T01:56:03;6.63;;;5.90;;
71836;SDS011;59686;51.716;7.016;2023-07-09T01:58:32;6.65;;;5.93;;
71836;SDS011;59686;51.716;7.016;2023-07-09T02:00:58;7.15;;;5.85;;
71836;SDS011;59686;51.716;7.016;2023-07-09T02:03:25;6.43;;;5.82;;
71836;SDS011;59686;51.716;7.016;2023-07-09T02:05:53;6.55;;;5.95;;
71836;SDS011;59686;51.716;7.016;2023-07-09T02:08:20;7.28;;;5.93;;
71836;SDS011;59686;51.716;7.016;2023-07-09T02:10:48;7.35;;;5.85;;
71836;SDS011;59686;51.716;7.016;2023-07-09T02:13:14;6.60;;;5.85;;
71836;SDS011;59686;51.716;7.016;2023-07-09T02:15:41;7.05;;;5.70;;
71836;SDS011;59686;51.716;7.016;2023-07-09T02:18:12;6.35;;;5.75;;
71836;SDS011;59686;51.716;7.016;2023-07-09T02:20:38;6.75;;;6.05;;
71836;SDS011;59686;51.716;7.016;2023-07-09T02:23:05;7.03;;;5.70;;
71836;SDS011;59686;51.716;7.016;2023-07-09T02:25:31;6.85;;;5.60;;
71836;SDS011;59686;51.716;7.016;2023-07-09T02:27:57;7.00;;;5.90;;
71836;SDS011;59686;51.716;7.016;2023-07-09T02:30:23;6.55;;;5.80;;
71836;SDS011;59686;51.716;7.016;2023-07-09T02:32:48;7.70;;;6.10;;
71836;SDS011;59686;51.716;7.016;2023-07-09T02:35:15;7.70;;;5.97;;
71836;SDS011;59686;51.716;7.016;2023-07-09T02:37:41;6.30;;;5.70;;
71836;SDS011;59686;51.716;7.016;2023-07-09T02:40:07;7.05;;;6.22;;
71836;SDS011;59686;51.716;7.016;2023-07-09T02:42:34;6.00;;;5.40;;
71836;SDS011;59686;51.716;7.016;2023-07-09T02:45:01;6.45;;;5.57;;
71836;SDS011;59686;51.716;7.016;2023-07-09T02:47:28;6.13;;;5.53;;
71836;SDS011;59686;51.716;7.016;2023-07-09T02:49:53;6.93;;;5.75;;
71836;SDS011;59686;51.716;7.016;2023-07-09T02:52:19;5.80;;;5.20;;
71836;SDS011;59686;51.716;7.016;2023-07-09T02:54:45;6.82;;;5.65;;
71836;SDS011;59686;51.716;7.016;2023-07-09T02:57:11;6.38;;;5.57;;
71836;SDS011;59686;51.716;7.016;2023-07-09T02:59:37;7.45;;;5.80;;
71836;SDS011;59686;51.716;7.016;2023-07-09T03:02:03;6.32;;;5.72;;
71836;SDS011;59686;51.716;7.016;2023-07-09T03:04:29;6.65;;;5.90;;
71836;SDS011;59686;51.716;7.016;2023-07-09T03:06:56;6.32;;;5.72;;
71836;SDS011;59686;51.716;7.016;2023-07-09T03:09:22;6.20;;;5.60;;
71836;SDS011;59686;51.716;7.016;2023-07-09T03:11:48;6.30;;;5.60;;
71836;SDS011;59686;51.716;7.016;2023-07-09T03:14:15;6.85;;;6.15;;
71836;SDS011;59686;51.716;7.016;2023-07-09T03:16:41;7.05;;;5.55;;
71836;SDS011;59686;51.716;7.016;2023-07-09T03:19:06;6.65;;;5.80;;
71836;SDS011;59686;51.716;7.016;2023-07-09T03:21:32;6.97;;;5.50;;
71836;SDS011;59686;51.716;7.016;2023-07-09T03:23:58;6.32;;;5.65;;
71836;SDS011;59686;51.716;7.016;2023-07-09T03:26:24;5.97;;;5.38;;
71836;SDS011;59686;51.716;7.016;2023-07-09T03:28:51;6.20;;;5.60;;
71836;SDS011;59686;51.716;7.016;2023-07-09T03:31:17;7.40;;;5.75;;
71836;SDS011;59686;51.716;7.016;2023-07-09T03:33:45;5.63;;;5.13;;
71836;SDS011;59686;51.716;7.016;2023-07-09T03:36:12;6.22;;;5.63;;
71836;SDS011;59686;51.716;7.016;2023-07-09T03:38:37;6.32;;;5.10;;
71836;SDS011;59686;51.716;7.016;2023-07-09T03:41:03;6.10;;;5.50;;
71836;SDS011;59686;51.716;7.016;2023-07-09T03:43:29;6.22;;;5.63;;
71836;SDS011;59686;51.716;7.016;2023-07-09T03:45:55;10.60;;;6.13;;
71836;SDS011;59686;51.716;7.016;2023-07-09T03:48:20;6.65;;;5.32;;
71836;SDS011;59686;51.716;7.016;2023-07-09T03:50:46;6.03;;;5.43;;
71836;SDS011;59686;51.716;7.016;2023-07-09T03:53:15;6.97;;;5.65;;
71836;SDS011;59686;51.716;7.016;2023-07-09T03:55:41;6.28;;;5.30;;
71836;SDS011;59686;51.716;7.016;2023-07-09T03:58:07;7.45;;;5.70;;
71836;SDS011;59686;51.716;7.016;2023-07-09T04:00:33;6.38;;;5.57;;
71836;SDS011;59686;51.716;7.016;2023-07-09T04:02:59;6.22;;;5.20;;
71836;SDS011;59686;51.716;7.016;2023-07-09T04:05:26;7.05;;;5.75;;
71836;SDS011;59686;51.716;7.016;2023-07-09T04:07:52;7.03;;;5.50;;
71836;SDS011;59686;51.716;7.016;2023-07-09T04:10:18;6.25;;;5.30;;
71836;SDS011;59686;51.716;7.016;2023-07-09T04:12:44;6.25;;;5.65;;
71836;SDS011;59686;51.716;7.016;2023-07-09T04:15:11;6.78;;;5.93;;
71836;SDS011;59686;51.716;7.016;2023-07-09T04:17:40;5.80;;;5.13;;
71836;SDS011;59686;51.716;7.016;2023-07-09T04:20:07;5.95;;;5.28;;
71836;SDS011;59686;51.716;7.016;2023-07-09T04:22:34;6.63;;;5.90;;
71836;SDS011;59686;51.716;7.016;2023-07-09T04:25:00;6.30;;;5.63;;
71836;SDS011;59686;51.716;7.016;2023-07-09T04:27:28;6.15;;;5.55;;
71836;SDS011;59686;51.716;7.016;2023-07-09T04:29:55;7.00;;;5.95;;
71836;SDS011;59686;51.716;7.016;2023-07-09T04:32:20;5.97;;;5.38;;
71836;SDS011;59686;51.716;7.016;2023-07-09T04:34:46;7.28;;;5.65;;
71836;SDS011;59686;51.716;7.016;2023-07-09T04:37:13;5.68;;;5.07;;
71836;SDS011;59686;51.716;7.016;2023-07-09T04:39:42;6.97;;;5.97;;
71836;SDS011;59686;51.716;7.016;2023-07-09T04:42:12;6.47;;;5.78;;
71836;SDS011;59686;51.716;7.016;2023-07-09T04:44:39;6.20;;;5.45;;
71836;SDS011;59686;51.716;7.016;2023-07-09T04:47:05;7.80;;;5.50;;
71836;SDS011;59686;51.716;7.016;2023-07-09T04:49:31;6.20;;;5.43;;
71836;SDS011;59686;51.716;7.016;2023-07-09T04:51:57;6.57;;;5.88;;
71836;SDS011;59686;51.716;7.016;2023-07-09T04:54:24;7.70;;;5.75;;
71836;SDS011;59686;51.716;7.016;2023-07-09T04:56:51;6.35;;;5.35;;
71836;SDS011;59686;51.716;7.016;2023-07-09T04:59:18;6.82;;;6.03;;
71836;SDS011;59686;51.716;7.016;2023-07-09T05:01:44;5.70;;;5.10;;
71836;SDS011;59686;51.716;7.016;2023-07-09T05:04:09;7.75;;;5.72;;
71836;SDS011;59686;51.716;7.016;2023-07-09T05:06:35;6.03;;;5.43;;
71836;SDS011;59686;51.716;7.016;2023-07-09T05:09:01;8.55;;;5.90;;
71836;SDS011;59686;51.716;7.016;2023-07-09T05:11:26;6.22;;;5.63;;
71836;SDS011;59686;51.716;7.016;2023-07-09T05:13:52;6.35;;;5.30;;
71836;SDS011;59686;51.716;7.016;2023-07-09T05:16:18;5.90;;;5.30;;
71836;SDS011;59686;51.716;7.016;2023-07-09T05:18:44;8.43;;;6.05;;
71836;SDS011;59686;51.716;7.016;2023-07-09T05:21:10;7.07;;;5.97;;
71836;SDS011;59686;51.716;7.016;2023-07-09T05:23:36;5.60;;;5.07;;
71836;SDS011;59686;51.716;7.016;2023-07-09T05:26:02;5.95;;;5.22;;
71836;SDS011;59686;51.716;7.016;2023-07-09T05:28:29;7.35;;;5.88;;
71836;SDS011;59686;51.716;7.016;2023-07-09T05:30:58;7.20;;;6.00;;
71836;SDS011;59686;51.716;7.016;2023-07-09T05:33:24;6.53;;;5.82;;
71836;SDS011;59686;51.716;7.016;2023-07-09T05:35:50;7.25;;;6.20;;
71836;SDS011;59686;51.716;7.016;2023-07-09T05:38:15;6.25;;;5.60;;
71836;SDS011;59686;51.716;7.016;2023-07-09T05:40:42;6.38;;;5.40;;
71836;SDS011;59686;51.716;7.016;2023-07-09T05:43:08;6.40;;;5.50;;
71836;SDS011;59686;51.716;7.016;2023-07-09T05:45:36;6.90;;;6.18;;
71836;SDS011;59686;51.716;7.016;2023-07-09T05:48:04;6.57;;;5.82;;
71836;SDS011;59686;51.716;7.016;2023-07-09T05:50:32;7.28;;;5.70;;
71836;SDS011;59686;51.716;7.016;2023-07-09T05:52:59;7.97;;;6.68;;
71836;SDS011;59686;51.716;7.016;2023-07-09T05:55:25;7.68;;;5.78;;
71836;SDS011;59686;51.716;7.016;2023-07-09T05:57:52;6.85;;;5.90;;
71836;SDS011;59686;51.716;7.016;2023-07-09T06:00:20;10.18;;;6.22;;
71836;SDS011;59686;51.716;7.016;2023-07-09T06:02:46;7.78;;;6.15;;
71836;SDS011;59686;51.716;7.016;2023-07-09T06:05:11;6.32;;;5.53;;
71836;SDS011;59686;51.716;7.016;2023-07-09T06:07:37;6.28;;;5.60;;
71836;SDS011;59686;51.716;7.016;2023-07-09T06:10:04;6.68;;;5.70;;
71836;SDS011;59686;51.716;7.016;2023-07-09T06:12:32;6.72;;;5.63;;
71836;SDS011;59686;51.716;7.016;2023-07-09T06:14:58;6.50;;;5.78;;
71836;SDS011;59686;51.716;7.016;2023-07-09T06:17:24;6.45;;;5.55;;
71836;SDS011;59686;51.716;7.016;2023-07-09T06:19:49;6.93;;;5.70;;
71836;SDS011;59686;51.716;7.016;2023-07-09T06:22:15;7.25;;;5.28;;
71836;SDS011;59686;51.716;7.016;2023-07-09T06:24:41;5.82;;;5.22;;
71836;SDS011;59686;51.716;7.016;2023-07-09T06:27:06;6.30;;;5.40;;
71836;SDS011;59686;51.716;7.016;2023-07-09T06:29:32;5.85;;;5.30;;
71836;SDS011;59686;51.716;7.016;2023-07-09T06:31:58;6.30;;;5.65;;
71836;SDS011;59686;51.716;7.016;2023-07-09T06:34:23;7.18;;;6.13;;
71836;SDS011;59686;51.716;7.016;2023-07-09T06:36:49;6.38;;;5.45;;
71836;SDS011;59686;51.716;7.016;2023-07-09T06:39:14;6.65;;;5.63;;
71836;SDS011;59686;51.716;7.016;2023-07-09T06:41:41;5.97;;;5.47;;
71836;SDS011;59686;51.716;7.016;2023-07-09T06:44:07;5.88;;;5.28;;
71836;SDS011;59686;51.716;7.016;2023-07-09T06:46:33;6.32;;;5.65;;
71836;SDS011;59686;51.716;7.016;2023-07-09T06:48:59;7.18;;;6.05;;
71836;SDS011;59686;51.716;7.016;2023-07-09T06:51:28;6.53;;;5.32;;
71836;SDS011;59686;51.716;7.016;2023-07-09T06:53:53;5.88;;;5.28;;
71836;SDS011;59686;51.716;7.016;2023-07-09T06:56:19;6.55;;;5.70;;
71836;SDS011;59686;51.716;7.016;2023-07-09T06:58:45;6.75;;;5.65;;
71836;SDS011;59686;51.716;7.016;2023-07-09T07:01:11;6.05;;;5.45;;
71836;SDS011;59686;51.716;7.016;2023-07-09T07:03:37;7.00;;;5.70;;
71836;SDS011;59686;51.716;7.016;2023-07-09T07:06:04;5.85;;;5.25;;
71836;SDS011;59686;51.716;7.016;2023-07-09T07:08:33;6.03;;;5.22;;
71836;SDS011;59686;51.716;7.016;2023-07-09T07:11:00;7.90;;;5.40;;
71836;SDS011;59686;51.716;7.016;2023-07-09T07:13:28;9.40;;;5.60;;
71836;SDS011;59686;51.716;7.016;2023-07-09T07:15:55;8.02;;;5.60;;
71836;SDS011;59686;51.716;7.016;2023-07-09T07:18:21;7.30;;;5.88;;
71836;SDS011;59686;51.716;7.016;2023-07-09T07:20:46;6.38;;;5.22;;
71836;SDS011;59686;51.716;7.016;2023-07-09T07:23:12;6.05;;;5.30;;
71836;SDS011;59686;51.716;7.016;2023-07-09T07:25:37;5.78;;;5.15;;
71836;SDS011;59686;51.716;7.016;2023-07-09T07:28:03;5.90;;;5.28;;
71836;SDS011;59686;51.716;7.016;2023-07-09T07:30:29;5.60;;;5.05;;
71836;SDS011;59686;51.716;7.016;2023-07-09T07:32:55;6.25;;;5.45;;
71836;SDS011;59686;51.716;7.016;2023-07-09T07:35:21;6.88;;;5.70;;
71836;SDS011;59686;51.716;7.016;2023-07-09T07:37:46;6.03;;;5.43;;
71836;SDS011;59686;51.716;7.016;2023-07-09T07:40:12;6.10;;;5.40;;
71836;SDS011;59686;51.716;7.016;2023-07-09T07:42:38;6.68;;;5.97;;
71836;SDS011;59686;51.716;7.016;2023-07-09T07:45:04;6.70;;;6.05;;
71836;SDS011;59686;51.716;7.016;2023-07-09T07:47:30;11.60;;;7.93;;
71836;SDS011;59686;51.716;7.016;2023-07-09T07:49:56;8.15;;;6.95;;
71836;SDS011;59686;51.716;7.016;2023-07-09T07:52:22;9.57;;;6.47;;
71836;SDS011;59686;51.716;7.016;2023-07-09T07:54:48;8.75;;;6.88;;
71836;SDS011;59686;51.716;7.016;2023-07-09T07:57:14;8.38;;;6.30;;
71836;SDS011;59686;51.716;7.016;2023-07-09T07:59:40;14.85;;;8.07;;
71836;SDS011;59686;51.716;7.016;2023-07-09T08:02:06;10.55;;;7.00;;
71836;SDS011;59686;51.716;7.016;2023-07-09T08:04:36;9.68;;;7.47;;
71836;SDS011;59686;51.716;7.016;2023-07-09T08:07:01;11.68;;;7.03;;
71836;SDS011;59686;51.716;7.016;2023-07-09T08:09:27;9.63;;;6.88;;
71836;SDS011;59686;51.716;7.016;2023-07-09T08:11:54;12.60;;;7.03;;
71836;SDS011;59686;51.716;7.016;2023-07-09T08:14:20;10.57;;;7.38;;
71836;SDS011;59686;51.716;7.016;2023-07-09T08:16:46;9.43;;;7.32;;
71836;SDS011;59686;51.716;7.016;2023-07-09T08:19:13;13.65;;;7.63;;
71836;SDS011;59686;51.716;7.016;2023-07-09T08:21:39;8.73;;;7.38;;
71836;SDS011;59686;51.716;7.016;2023-07-09T08:24:04;9.73;;;7.35;;
71836;SDS011;59686;51.716;7.016;2023-07-09T08:26:30;10.90;;;7.50;;
71836;SDS011;59686;51.716;7.016;2023-07-09T08:28:57;12.77;;;7.80;;
71836;SDS011;59686;51.716;7.016;2023-07-09T08:31:23;10.93;;;7.65;;
71836;SDS011;59686;51.716;7.016;2023-07-09T08:33:52;10.60;;;7.85;;
71836;SDS011;59686;51.716;7.016;2023-07-09T08:36:17;12.80;;;7.03;;
71836;SDS011;59686;51.716;7.016;2023-07-09T08:38:43;11.45;;;7.80;;
71836;SDS011;59686;51.716;7.016;2023-07-09T08:41:16;12.13;;;7.32;;
71836;SDS011;59686;51.716;7.016;2023-07-09T08:47:03;10.30;;;6.78;;
71836;SDS011;59686;51.716;7.016;2023-07-09T08:49:38;11.48;;;7.72;;
71836;SDS011;59686;51.716;7.016;2023-07-09T08:54:47;12.05;;;6.82;;
71836;SDS011;59686;51.716;7.016;2023-07-09T08:57:19;10.68;;;6.75;;
71836;SDS011;59686;51.716;7.016;2023-07-09T08:59:53;8.07;;;6.63;;
71836;SDS011;59686;51.716;7.016;2023-07-09T09:02:32;10.88;;;7.20;;
71836;SDS011;59686;51.716;7.016;2023-07-09T09:05:17;9.15;;;7.05;;
71836;SDS011;59686;51.716;7.016;2023-07-09T09:07:44;11.65;;;7.43;;
71836;SDS011;59686;51.716;7.016;2023-07-09T09:10:33;10.23;;;7.07;;
71836;SDS011;59686;51.716;7.016;2023-07-09T09:13:09;10.63;;;7.47;;
71836;SDS011;59686;51.716;7.016;2023-07-09T09:15:38;11.38;;;7.25;;
71836;SDS011;59686;51.716;7.016;2023-07-09T09:18:14;14.05;;;7.93;;
71836;SDS011;59686;51.716;7.016;2023-07-09T09:20:46;10.55;;;7.47;;
71836;SDS011;59686;51.716;7.016;2023-07-09T09:23:16;10.65;;;7.30;;
71836;SDS011;59686;51.716;7.016;2023-07-09T09:25:52;10.32;;;8.05;;
71836;SDS011;59686;51.716;7.016;2023-07-09T09:28:22;10.40;;;7.57;;
71836;SDS011;59686;51.716;7.016;2023-07-09T09:30:50;10.23;;;7.22;;
71836;SDS011;59686;51.716;7.016;2023-07-09T09:33:16;11.15;;;7.30;;
71836;SDS011;59686;51.716;7.016;2023-07-09T09:35:49;10.95;;;7.05;;
71836;SDS011;59686;51.716;7.016;2023-07-09T09:38:25;11.45;;;7.78;;
71836;SDS011;59686;51.716;7.016;2023-07-09T09:40:51;10.80;;;7.80;;
71836;SDS011;59686;51.716;7.016;2023-07-09T09:43:31;9.65;;;7.20;;
71836;SDS011;59686;51.716;7.016;2023-07-09T09:45:58;11.30;;;7.30;;
71836;SDS011;59686;51.716;7.016;2023-07-09T09:48:27;14.05;;;8.60;;
71836;SDS011;59686;51.716;7.016;2023-07-09T09:50:55;11.90;;;8.00;;
71836;SDS011;59686;51.716;7.016;2023-07-09T09:53:25;10.13;;;7.00;;
71836;SDS011;59686;51.716;7.016;2023-07-09T09:55:53;12.77;;;7.18;;
71836;SDS011;59686;51.716;7.016;2023-07-09T09:58:25;10.10;;;7.05;;
71836;SDS011;59686;51.716;7.016;2023-07-09T10:00:54;9.10;;;6.82;;
71836;SDS011;59686;51.716;7.016;2023-07-09T10:03:31;8.00;;;6.90;;
71836;SDS011;59686;51.716;7.016;2023-07-09T10:06:01;11.35;;;6.63;;
71836;SDS011;59686;51.716;7.016;2023-07-09T10:14:39;8.27;;;6.03;;
71836;SDS011;59686;51.716;7.016;2023-07-09T10:25:57;10.07;;;6.15;;
71836;SDS011;59686;51.716;7.016;2023-07-09T10:28:31;7.40;;;5.68;;
71836;SDS011;59686;51.716;7.016;2023-07-09T10:33:55;7.60;;;6.32;;
71836;SDS011;59686;51.716;7.016;2023-07-09T10:36:39;11.10;;;7.22;;
71836;SDS011;59686;51.716;7.016;2023-07-09T10:39:14;8.15;;;6.70;;
71836;SDS011;59686;51.716;7.016;2023-07-09T10:41:45;10.40;;;6.32;;
71836;SDS011;59686;51.716;7.016;2023-07-09T10:44:19;10.57;;;6.90;;
71836;SDS011;59686;51.716;7.016;2023-07-09T10:46:49;9.50;;;6.57;;
71836;SDS011;59686;51.716;7.016;2023-07-09T10:49:18;9.57;;;6.40;;
71836;SDS011;59686;51.716;7.016;2023-07-09T10:51:50;8.15;;;6.18;;
71836;SDS011;59686;51.716;7.016;2023-07-09T10:54:28;8.77;;;6.00;;
71836;SDS011;59686;51.716;7.016;2023-07-09T10:57:22;8.38;;;6.45;;
71836;SDS011;59686;51.716;7.016;2023-07-09T10:59:54;7.95;;;6.80;;
71836;SDS011;59686;51.716;7.016;2023-07-09T11:04:59;8.65;;;6.28;;
71836;SDS011;59686;51.716;7.016;2023-07-09T11:07:30;11.93;;;7.13;;
71836;SDS011;59686;51.716;7.016;2023-07-09T11:10:07;9.23;;;6.32;;
71836;SDS011;59686;51.716;7.016;2023-07-09T11:18:23;7.03;;;5.53;;
71836;SDS011;59686;51.716;7.016;2023-07-09T11:23:26;10.32;;;6.15;;
71836;SDS011;59686;51.716;7.016;2023-07-09T11:26:12;7.93;;;5.60;;
71836;SDS011;59686;51.716;7.016;2023-07-09T11:36:58;7.75;;;5.60;;
71836;SDS011;59686;51.716;7.016;2023-07-09T11:39:28;7.05;;;5.65;;
71836;SDS011;59686;51.716;7.016;2023-07-09T11:42:03;8.30;;;5.82;;
71836;SDS011;59686;51.716;7.016;2023-07-09T11:44:51;7.95;;;5.70;;
71836;SDS011;59686;51.716;7.016;2023-07-09T11:50:20;6.95;;;5.60;;
71836;SDS011;59686;51.716;7.016;2023-07-09T11:52:57;9.80;;;5.97;;
71836;SDS011;59686;51.716;7.016;2023-07-09T11:58:05;9.98;;;6.10;;
71836;SDS011;59686;51.716;7.016;2023-07-09T12:00:49;11.88;;;6.03;;
71836;SDS011;59686;51.716;7.016;2023-07-09T12:03:33;9.18;;;6.65;;
71836;SDS011;59686;51.716;7.016;2023-07-09T12:06:16;7.93;;;5.85;;
71836;SDS011;59686;51.716;7.016;2023-07-09T12:08:46;12.15;;;5.95;;
71836;SDS011;59686;51.716;7.016;2023-07-09T12:11:20;9.70;;;5.72;;
71836;SDS011;59686;51.716;7.016;2023-07-09T12:13:51;5.75;;;5.03;;
71836;SDS011;59686;51.716;7.016;2023-07-09T12:16:28;7.65;;;5.93;;
71836;SDS011;59686;51.716;7.016;2023-07-09T12:18:55;10.35;;;5.88;;
71836;SDS011;59686;51.716;7.016;2023-07-09T12:21:22;9.27;;;5.85;;
71836;SDS011;59686;51.716;7.016;2023-07-09T12:23:50;8.35;;;5.80;;
71836;SDS011;59686;51.716;7.016;2023-07-09T12:26:19;8.68;;;5.93;;
71836;SDS011;59686;51.716;7.016;2023-07-09T12:28:52;9.25;;;6.18;;
71836;SDS011;59686;51.716;7.016;2023-07-09T12:31:21;8.75;;;5.70;;
71836;SDS011;59686;51.716;7.016;2023-07-09T12:33:54;8.98;;;5.85;;
71836;SDS011;59686;51.716;7.016;2023-07-09T12:36:22;7.78;;;5.13;;
71836;SDS011;59686;51.716;7.016;2023-07-09T12:41:28;7.57;;;5.10;;
71836;SDS011;59686;51.716;7.016;2023-07-09T12:44:00;7.00;;;5.07;;
71836;SDS011;59686;51.716;7.016;2023-07-09T12:46:25;6.38;;;5.60;;
71836;SDS011;59686;51.716;7.016;2023-07-09T12:48:52;7.50;;;5.55;;
71836;SDS011;59686;51.716;7.016;2023-07-09T12:51:21;7.07;;;5.00;;
71836;SDS011;59686;51.716;7.016;2023-07-09T12:53:59;9.05;;;5.95;;
71836;SDS011;59686;51.716;7.016;2023-07-09T12:56:46;8.45;;;5.57;;
71836;SDS011;59686;51.716;7.016;2023-07-09T12:59:25;10.70;;;6.25;;
71836;SDS011;59686;51.716;7.016;2023-07-09T13:04:43;8.27;;;5.50;;
71836;SDS011;59686;51.716;7.016;2023-07-09T13:10:04;8.55;;;5.85;;
71836;SDS011;59686;51.716;7.016;2023-07-09T13:12:32;6.93;;;5.07;;
71836;SDS011;59686;51.716;7.016;2023-07-09T13:14:58;8.20;;;5.38;;
71836;SDS011;59686;51.716;7.016;2023-07-09T13:17:34;8.30;;;4.90;;
71836;SDS011;59686;51.716;7.016;2023-07-09T13:20:00;6.63;;;5.43;;
71836;SDS011;59686;51.716;7.016;2023-07-09T13:22:27;7.30;;;4.40;;
71836;SDS011;59686;51.716;7.016;2023-07-09T13:24:53;10.85;;;4.47;;
71836;SDS011;59686;51.716;7.016;2023-07-09T13:27:19;4.45;;;4.05;;
71836;SDS011;59686;51.716;7.016;2023-07-09T13:29:44;8.82;;;4.68;;
71836;SDS011;59686;51.716;7.016;2023-07-09T13:32:15;5.63;;;4.25;;
71836;SDS011;59686;51.716;7.016;2023-07-09T13:34:41;9.43;;;4.45;;
71836;SDS011;59686;51.716;7.016;2023-07-09T13:37:12;9.15;;;5.20;;
71836;SDS011;59686;51.716;7.016;2023-07-09T13:39:39;7.78;;;4.70;;
71836;SDS011;59686;51.716;7.016;2023-07-09T13:42:13;5.97;;;4.18;;
71836;SDS011;59686;51.716;7.016;2023-07-09T13:44:42;6.38;;;4.35;;
71836;SDS011;59686;51.716;7.016;2023-07-09T13:47:18;5.63;;;4.60;;
71836;SDS011;59686;51.716;7.016;2023-07-09T13:49:44;7.18;;;4.43;;
71836;SDS011;59686;51.716;7.016;2023-07-09T13:52:19;8.30;;;4.65;;
71836;SDS011;59686;51.716;7.016;2023-07-09T13:54:46;5.38;;;4.47;;
71836;SDS011;59686;51.716;7.016;2023-07-09T13:57:19;6.28;;;4.45;;
71836;SDS011;59686;51.716;7.016;2023-07-09T13:59:46;6.88;;;4.60;;
71836;SDS011;59686;51.716;7.016;2023-07-09T14:02:17;5.72;;;4.28;;
71836;SDS011;59686;51.716;7.016;2023-07-09T14:04:59;8.50;;;4.65;;
71836;SDS011;59686;51.716;7.016;2023-07-09T14:07:32;5.13;;;3.90;;
71836;SDS011;59686;51.716;7.016;2023-07-09T14:10:00;7.30;;;4.38;;
71836;SDS011;59686;51.716;7.016;2023-07-09T14:12:31;7.10;;;4.72;;
71836;SDS011;59686;51.716;7.016;2023-07-09T14:14:57;6.93;;;4.72;;
71836;SDS011;59686;51.716;7.016;2023-07-09T14:17:25;7.13;;;4.60;;
71836;SDS011;59686;51.716;7.016;2023-07-09T14:19:51;6.75;;;5.25;;
71836;SDS011;59686;51.716;7.016;2023-07-09T14:24:43;5.82;;;4.63;;
71836;SDS011;59686;51.716;7.016;2023-07-09T14:27:08;6.80;;;4.55;;
71836;SDS011;59686;51.716;7.016;2023-07-09T14:29:41;8.77;;;5.18;;
71836;SDS011;59686;51.716;7.016;2023-07-09T14:32:13;10.23;;;4.50;;
71836;SDS011;59686;51.716;7.016;2023-07-09T14:37:27;6.97;;;5.18;;
71836;SDS011;59686;51.716;7.016;2023-07-09T14:39:54;7.43;;;4.88;;
71836;SDS011;59686;51.716;7.016;2023-07-09T14:42:20;8.40;;;4.82;;
71836;SDS011;59686;51.716;7.016;2023-07-09T14:44:48;6.10;;;4.55;;
71836;SDS011;59686;51.716;7.016;2023-07-09T14:47:18;9.93;;;4.70;;
71836;SDS011;59686;51.716;7.016;2023-07-09T14:49:45;6.35;;;4.80;;
71836;SDS011;59686;51.716;7.016;2023-07-09T14:52:13;8.25;;;5.22;;
71836;SDS011;59686;51.716;7.016;2023-07-09T14:54:42;7.78;;;4.82;;
71836;SDS011;59686;51.716;7.016;2023-07-09T14:57:20;6.93;;;4.45;;
71836;SDS011;59686;51.716;7.016;2023-07-09T14:59:51;6.15;;;4.68;;
71836;SDS011;59686;51.716;7.016;2023-07-09T15:04:52;7.47;;;4.85;;
71836;SDS011;59686;51.716;7.016;2023-07-09T15:07:19;7.03;;;4.40;;
71836;SDS011;59686;51.716;7.016;2023-07-09T15:09:44;7.75;;;5.30;;
71836;SDS011;59686;51.716;7.016;2023-07-09T15:12:18;8.57;;;5.43;;
71836;SDS011;59686;51.716;7.016;2023-07-09T15:14:47;8.98;;;5.10;;
71836;SDS011;59686;51.716;7.016;2023-07-09T15:17:13;11.57;;;5.50;;
71836;SDS011;59686;51.716;7.016;2023-07-09T15:19:39;6.53;;;4.47;;
71836;SDS011;59686;51.716;7.016;2023-07-09T15:22:05;6.57;;;4.10;;
71836;SDS011;59686;51.716;7.016;2023-07-09T15:24:43;6.50;;;4.05;;
71836;SDS011;59686;51.716;7.016;2023-07-09T15:27:08;6.50;;;4.32;;
71836;SDS011;59686;51.716;7.016;2023-07-09T15:29:34;6.32;;;4.30;;
71836;SDS011;59686;51.716;7.016;2023-07-09T15:31:59;7.45;;;4.72;;
71836;SDS011;59686;51.716;7.016;2023-07-09T15:34:26;5.93;;;3.85;;
71836;SDS011;59686;51.716;7.016;2023-07-09T15:36:52;6.40;;;4.22;;
71836;SDS011;59686;51.716;7.016;2023-07-09T15:39:19;7.00;;;4.78;;
71836;SDS011;59686;51.716;7.016;2023-07-09T15:41:46;7.07;;;4.50;;
71836;SDS011;59686;51.716;7.016;2023-07-09T15:44:12;5.20;;;4.25;;
71836;SDS011;59686;51.716;7.016;2023-07-09T15:46:40;7.93;;;4.50;;
71836;SDS011;59686;51.716;7.016;2023-07-09T15:49:12;6.25;;;4.40;;
71836;SDS011;59686;51.716;7.016;2023-07-09T15:51:38;5.70;;;4.40;;
71836;SDS011;59686;51.716;7.016;2023-07-09T15:54:14;8.32;;;4.05;;
71836;SDS011;59686;51.716;7.016;2023-07-09T15:56:41;7.15;;;4.40;;
71836;SDS011;59686;51.716;7.016;2023-07-09T15:59:10;6.03;;;4.43;;
71836;SDS011;59686;51.716;7.016;2023-07-09T16:01:45;4.70;;;3.88;;
71836;SDS011;59686;51.716;7.016;2023-07-09T16:04:11;7.00;;;3.67;;